Time;durP1;ratioP1;P1;durP2;ratioP2;P2;SDS_P1;SDS_P2;PMS_P1;PMS_P2;Temp;Humidity;BMP_temperature;BMP_pressure;BME280_temperature;BME280_humidity;BME280_pressure;Samples;Min_cycle;Max_cycle;Signal;HPM_P1;HPM_P2
2022/06/09 00:01:55;;;;;;;;;;;;;;;;;;4959652;28;20333;-60
2022/06/09 00:04:21;;;;;;;;;;;;;;;;;;4956414;28;19922;-59
2022/06/09 00:06:49;;;;;;;;;;;;;;;;;;4938156;28;20885;-59
2022/06/09 00:09:14;;;;;;;;;;;;;;;;;;4957325;28;19929;-58
2022/06/09 00:11:45;;;;;;;;;;;;;;;;;;4940346;28;19918;-60
2022/06/09 00:14:10;;;;;;;;;;;;;;;;;;4959217;28;19938;-59
2022/06/09 00:16:37;;;;;;;;;;;;;;;;;;4956542;28;19932;-59
2022/06/09 00:19:05;;;;;;;;;;;;;;;;;;4957185;28;19922;-60
2022/06/09 00:21:37;;;;;;;;;;;;;;;;;;4926177;28;19969;-58
2022/06/09 00:24:04;;;;;;;;;;;;;;;;;;4955144;28;19928;-58
2022/06/09 00:26:30;;;;;;;;;;;;;;;;;;4956934;28;20324;-59
2022/06/09 00:28:55;;;;;;;;;;;;;;;;;;4957994;28;19932;-59
2022/06/09 00:31:20;;;;;;;;;;;;;;;;;;4942531;28;19926;-60
2022/06/09 00:33:48;;;;;;;;;;;;;;;;;;4958052;28;19981;-60
2022/06/09 00:36:13;;;;;;;;;;;;;;;;;;4957214;28;19918;-60
2022/06/09 00:38:38;;;;;;;;;;;;;;;;;;4942898;28;19981;-60
2022/06/09 00:41:06;;;;;;;;;;;;;;;;;;4957178;28;20859;-60
2022/06/09 00:43:31;;;;;;;;;;;;;;;;;;4943149;28;19928;-60
2022/06/09 00:45:59;;;;;;;;;;;;;;;;;;4941172;28;19918;-59
2022/06/09 00:48:24;;;;;;;;;;;;;;;;;;4960401;28;21897;-58
2022/06/09 00:50:50;;;;;;;;;;;;;;;;;;4957433;28;19918;-60
2022/06/09 00:53:20;;;;;;;;;;;;;;;;;;4939173;28;20009;-60
2022/06/09 00:55:48;;;;;;;;;;;;;;;;;;4954922;28;19925;-59
2022/06/09 00:58:13;;;;;;;;;;;;;;;;;;4943551;28;21117;-59
2022/06/09 01:00:39;;;;;;;;;;;;;;;;;;4956344;28;19933;-60
2022/06/09 01:03:04;;;;;;;;;;;;;;;;;;4958050;28;19926;-60
2022/06/09 01:05:31;;;;;;;;;;;;;;;;;;4957113;28;19922;-59
2022/06/09 01:07:59;;;;;;;;;;;;;;;;;;4941412;28;19933;-60
2022/06/09 01:10:27;;;;;;;;;;;;;;;;;;4942299;28;19922;-61
2022/06/09 01:12:53;;;;;;;;;;;;;;;;;;4957374;28;20190;-59
2022/06/09 01:15:18;;;;;;;;;;;;;;;;;;4954790;28;20442;-60
2022/06/09 01:17:46;;;;;;;;;;;;;;;;;;4956667;28;20586;-60
2022/06/09 01:20:14;;;;;;;;;;;;;;;;;;4957336;28;19918;-60
2022/06/09 01:22:43;;;;;;;;;;;;;;;;;;4944150;28;19926;-60
2022/06/09 01:25:11;;;;;;;;;;;;;;;;;;4924818;28;19926;-60
2022/06/09 01:27:36;;;;;;;;;;;;;;;;;;4925274;28;19968;-60
2022/06/09 01:30:03;;;;;;;;;;;;;;;;;;4939158;28;19925;-57
2022/06/09 01:32:29;;;;;;;;;;;;;;;;;;4957953;28;20037;-60
2022/06/09 01:34:57;;;;;;;;;;;;;;;;;;4955876;28;19937;-60
2022/06/09 01:37:22;;;;;;;;;;;;;;;;;;4940706;28;19918;-60
2022/06/09 01:39:50;;;;;;;;;;;;;;;;;;4934639;28;19926;-60
2022/06/09 01:42:18;;;;;;;;;;;;;;;;;;4957833;28;19941;-60
2022/06/09 01:44:43;;;;;;;;;;;;;;;;;;4941312;28;19998;-60
2022/06/09 01:47:11;;;;;;;;;;;;;;;;;;4939713;28;19921;-60
2022/06/09 01:49:39;;;;;;;;;;;;;;;;;;4931174;28;19918;-60
2022/06/09 01:52:04;;;;;;;;;;;;;;;;;;4958401;28;21706;-59
2022/06/09 01:54:32;;;;;;;;;;;;;;;;;;4955665;28;19933;-59
2022/06/09 01:57:00;;;;;;;;;;;;;;;;;;4952905;28;19972;-60
2022/06/09 01:59:28;;;;;;;;;;;;;;;;;;4940745;28;19953;-59
2022/06/09 02:01:56;;;;;;;;;;;;;;;;;;4956837;28;19918;-59
2022/06/09 02:04:21;;;;;;;;;;;;;;;;;;4956784;28;19983;-59
2022/06/09 02:06:50;;;;;;;;;;;;;;;;;;4956466;28;19927;-60
2022/06/09 02:09:18;;;;;;;;;;;;;;;;;;4936370;28;20014;-59
2022/06/09 02:11:43;;;;;;;;;;;;;;;;;;4916458;28;20263;-59
2022/06/09 02:14:09;;;;;;;;;;;;;;;;;;4955665;28;20714;-59
2022/06/09 02:16:34;;;;;;;;;;;;;;;;;;4955173;28;20081;-59
2022/06/09 02:19:05;;;;;;;;;;;;;;;;;;4953959;28;19922;-60
2022/06/09 02:21:30;;;;;;;;;;;;;;;;;;4941296;28;19969;-60
2022/06/09 02:23:58;;;;;;;;;;;;;;;;;;4953455;28;20229;-60
2022/06/09 02:26:26;;;;;;;;;;;;;;;;;;4954937;28;20060;-60
2022/06/09 02:28:51;;;;;;;;;;;;;;;;;;4955934;28;20008;-59
2022/06/09 02:31:17;;;;;;;;;;;;;;;;;;4955367;28;21038;-59
2022/06/09 02:33:43;;;;;;;;;;;;;;;;;;4937318;28;19922;-59
2022/06/09 02:36:11;;;;;;;;;;;;;;;;;;4936207;28;19933;-60
2022/06/09 02:38:39;;;;;;;;;;;;;;;;;;4956453;28;19943;-59
2022/06/09 02:41:06;;;;;;;;;;;;;;;;;;4921661;28;20306;-59
2022/06/09 02:43:31;;;;;;;;;;;;;;;;;;4922458;28;19929;-59
2022/06/09 02:46:01;;;;;;;;;;;;;;;;;;4956372;28;19925;-59
2022/06/09 02:48:26;;;;;;;;;;;;;;;;;;4955560;28;19928;-59
2022/06/09 02:50:52;;;;;;;;;;;;;;;;;;4954263;28;19921;-59
2022/06/09 02:53:20;;;;;;;;;;;;;;;;;;4938514;28;19922;-59
2022/06/09 02:55:46;;;;;;;;;;;;;;;;;;4954496;28;19926;-59
2022/06/09 02:58:11;;;;;;;;;;;;;;;;;;4953336;28;19918;-59
2022/06/09 03:00:36;;;;;;;;;;;;;;;;;;4955076;28;20390;-59
2022/06/09 03:03:06;;;;;;;;;;;;;;;;;;4956072;28;19921;-59
2022/06/09 03:05:34;;;;;;;;;;;;;;;;;;4955324;28;19938;-59
2022/06/09 03:08:02;;;;;;;;;;;;;;;;;;4939444;28;19922;-59
2022/06/09 03:10:30;;;;;;;;;;;;;;;;;;4938772;28;19918;-58
2022/06/09 03:12:56;;;;;;;;;;;;;;;;;;4954089;28;19929;-58
2022/06/09 03:15:24;;;;;;;;;;;;;;;;;;4936934;28;19921;-59
2022/06/09 03:17:49;;;;;;;;;;;;;;;;;;4938135;28;19998;-58
2022/06/09 03:20:17;;;;;;;;;;;;;;;;;;4952526;28;20227;-59
2022/06/09 03:22:45;;;;;;;;;;;;;;;;;;4956092;28;19918;-58
2022/06/09 03:25:10;;;;;;;;;;;;;;;;;;4955775;28;19937;-59
2022/06/09 03:27:36;;;;;;;;;;;;;;;;;;4957530;28;21323;-59
2022/06/09 03:30:03;;;;;;;;;;;;;;;;;;4942687;28;19918;-59
2022/06/09 03:32:31;;;;;;;;;;;;;;;;;;4958607;28;19925;-59
2022/06/09 03:34:59;;;;;;;;;;;;;;;;;;4959216;28;19969;-58
2022/06/09 03:37:24;;;;;;;;;;;;;;;;;;4959675;28;19922;-58
2022/06/09 03:39:50;;;;;;;;;;;;;;;;;;4956161;28;19922;-58
2022/06/09 03:42:15;;;;;;;;;;;;;;;;;;4961308;28;20053;-58
2022/06/09 03:44:43;;;;;;;;;;;;;;;;;;4957455;28;19918;-58
2022/06/09 03:47:11;;;;;;;;;;;;;;;;;;4943562;28;20958;-58
2022/06/09 03:49:36;;;;;;;;;;;;;;;;;;4958723;28;19964;-58
2022/06/09 03:52:04;;;;;;;;;;;;;;;;;;4944683;28;20381;-58
2022/06/09 03:54:29;;;;;;;;;;;;;;;;;;4958243;28;20018;-58
2022/06/09 03:56:55;;;;;;;;;;;;;;;;;;4939369;28;19922;-58
2022/06/09 03:59:22;;;;;;;;;;;;;;;;;;4956943;28;19924;-58
2022/06/09 04:01:50;;;;;;;;;;;;;;;;;;4960056;28;19921;-58
2022/06/09 04:04:17;;;;;;;;;;;;;;;;;;4957929;28;20462;-57
2022/06/09 04:06:43;;;;;;;;;;;;;;;;;;4959731;28;19949;-58
2022/06/09 04:09:08;;;;;;;;;;;;;;;;;;4938459;28;19966;-58
2022/06/09 04:11:34;;;;;;;;;;;;;;;;;;4941294;28;19918;-58
2022/06/09 04:13:59;;;;;;;;;;;;;;;;;;4942416;28;19956;-58
2022/06/09 04:16:27;;;;;;;;;;;;;;;;;;4924181;28;19922;-58
2022/06/09 04:18:53;;;;;;;;;;;;;;;;;;4940844;28;19933;-57
2022/06/09 04:21:20;;;;;;;;;;;;;;;;;;4940118;28;19922;-57
2022/06/09 04:23:45;;;;;;;;;;;;;;;;;;4959075;28;19929;-57
2022/06/09 04:26:11;;;;;;;;;;;;;;;;;;4935946;28;21782;-58
2022/06/09 04:28:36;;;;;;;;;;;;;;;;;;4942421;28;19941;-58
2022/06/09 04:31:01;;;;;;;;;;;;;;;;;;4957479;28;19918;-58
2022/06/09 04:33:29;;;;;;;;;;;;;;;;;;4958969;28;19953;-58
2022/06/09 04:35:54;;;;;;;;;;;;;;;;;;4934912;28;19953;-59
2022/06/09 04:38:22;;;;;;;;;;;;;;;;;;4957944;28;19966;-59
2022/06/09 04:40:47;;;;;;;;;;;;;;;;;;4939097;28;20029;-59
2022/06/09 04:43:15;;;;;;;;;;;;;;;;;;4958353;28;19922;-58
2022/06/09 04:45:43;;;;;;;;;;;;;;;;;;4941792;28;20352;-59
2022/06/09 04:48:09;;;;;;;;;;;;;;;;;;4925963;28;19926;-59
2022/06/09 04:50:35;;;;;;;;;;;;;;;;;;4957180;28;19922;-58
2022/06/09 04:53:00;;;;;;;;;;;;;;;;;;4938468;28;19930;-59
2022/06/09 04:55:26;;;;;;;;;;;;;;;;;;4958222;28;19926;-60
2022/06/09 04:57:52;;;;;;;;;;;;;;;;;;4919694;28;20374;-60
2022/06/09 05:00:20;;;;;;;;;;;;;;;;;;4955589;28;20367;-59
2022/06/09 05:02:45;;;;;;;;;;;;;;;;;;4958068;28;19925;-59
2022/06/09 05:05:11;;;;;;;;;;;;;;;;;;4956211;28;19954;-60
2022/06/09 05:07:36;;;;;;;;;;;;;;;;;;4957212;28;19941;-58
2022/06/09 05:10:02;;;;;;;;;;;;;;;;;;4955954;28;19921;-60
2022/06/09 05:12:27;;;;;;;;;;;;;;;;;;4940139;28;19957;-60
2022/06/09 05:14:55;;;;;;;;;;;;;;;;;;4937187;28;20198;-59
2022/06/09 05:17:21;;;;;;;;;;;;;;;;;;4957414;28;21821;-59
2022/06/09 05:19:47;;;;;;;;;;;;;;;;;;4937758;28;20037;-59
2022/06/09 05:22:12;;;;;;;;;;;;;;;;;;4957594;28;19925;-58
2022/06/09 05:24:38;;;;;;;;;;;;;;;;;;4939323;28;19944;-59
2022/06/09 05:27:03;;;;;;;;;;;;;;;;;;4939327;28;19922;-58
2022/06/09 05:29:28;;;;;;;;;;;;;;;;;;4938724;28;19926;-59
2022/06/09 05:31:54;;;;;;;;;;;;;;;;;;4940413;28;19918;-59
2022/06/09 05:34:20;;;;;;;;;;;;;;;;;;4956796;28;19926;-58
2022/06/09 05:36:45;;;;;;;;;;;;;;;;;;4956670;28;19936;-60
2022/06/09 05:44:55;;;;;;;;;;;;;;;;;;4956549;28;21764;-59
2022/06/09 05:47:23;;;;;;;;;;;;;;;;;;4956056;28;19918;-59
2022/06/09 05:49:50;;;;;;;;;;;;;;;;;;4938069;28;19921;-60
2022/06/09 05:52:19;;;;;;;;;;;;;;;;;;4956379;28;19918;-60
2022/06/09 05:54:44;;;;;;;;;;;;;;;;;;4955932;28;19941;-59
2022/06/09 05:57:09;;;;;;;;;;;;;;;;;;4939666;28;19980;-58
2022/06/09 05:59:36;;;;;;;;;;;;;;;;;;4954707;28;19933;-59
2022/06/09 06:02:06;;;;;;;;;;;;;;;;;;4956612;28;19918;-59
2022/06/09 06:04:34;;;;;;;;;;;;;;;;;;4954875;28;19922;-60
2022/06/09 06:06:59;;;;;;;;;;;;;;;;;;4957214;28;19957;-60
2022/06/09 06:09:24;;;;;;;;;;;;;;;;;;4955413;28;20550;-60
2022/06/09 06:11:52;;;;;;;;;;;;;;;;;;4940309;28;19917;-59
2022/06/09 06:14:18;;;;;;;;;;;;;;;;;;4930618;28;19929;-60
2022/06/09 06:16:43;;;;;;;;;;;;;;;;;;4922234;28;19926;-60
2022/06/09 06:19:09;;;;;;;;;;;;;;;;;;4953211;28;19918;-61
2022/06/09 06:21:34;;;;;;;;;;;;;;;;;;4956088;28;19933;-60
2022/06/09 06:24:00;;;;;;;;;;;;;;;;;;4953657;28;19926;-59
2022/06/09 06:26:28;;;;;;;;;;;;;;;;;;4942734;28;19957;-61
2022/06/09 06:28:53;;;;;;;;;;;;;;;;;;4955950;28;20012;-61
2022/06/09 06:31:21;;;;;;;;;;;;;;;;;;4954903;28;19922;-62
2022/06/09 06:33:52;;;;;;;;;;;;;;;;;;4955740;28;20028;-61
2022/06/09 06:36:17;;;;;;;;;;;;;;;;;;4954331;28;19994;-61
2022/06/09 06:38:43;;;;;;;;;;;;;;;;;;4956567;28;20004;-62
2022/06/09 06:41:11;;;;;;;;;;;;;;;;;;4955007;28;19922;-61
2022/06/09 06:43:37;;;;;;;;;;;;;;;;;;4954653;28;19933;-62
2022/06/09 06:46:02;;;;;;;;;;;;;;;;;;4922809;28;19930;-61
2022/06/09 06:48:28;;;;;;;;;;;;;;;;;;4956154;28;19929;-61
2022/06/09 06:50:53;;;;;;;;;;;;;;;;;;4952720;28;19925;-62
2022/06/09 06:53:18;;;;;;;;;;;;;;;;;;4938946;28;19922;-62
2022/06/09 06:55:43;;;;;;;;;;;;;;;;;;4937417;28;19925;-60
2022/06/09 06:58:09;;;;;;;;;;;;;;;;;;4955627;28;19952;-62
2022/06/09 07:00:34;;;;;;;;;;;;;;;;;;4938227;28;19922;-60
2022/06/09 07:03:00;;;;;;;;;;;;;;;;;;4935180;28;19973;-61
2022/06/09 07:05:28;;;;;;;;;;;;;;;;;;4937813;28;20048;-62
2022/06/09 07:07:56;;;;;;;;;;;;;;;;;;4936758;28;19930;-61
2022/06/09 07:10:21;;;;;;;;;;;;;;;;;;4945765;28;20012;-61
2022/06/09 07:12:49;;;;;;;;;;;;;;;;;;4938907;28;21850;-61
2022/06/09 07:15:14;;;;;;;;;;;;;;;;;;4952059;28;19930;-62
2022/06/09 07:17:40;;;;;;;;;;;;;;;;;;4941948;28;19928;-62
2022/06/09 07:20:07;;;;;;;;;;;;;;;;;;4954685;28;19924;-60
2022/06/09 07:22:37;;;;;;;;;;;;;;;;;;4936896;28;19922;-61
2022/06/09 07:25:05;;;;;;;;;;;;;;;;;;4936681;28;19922;-62
2022/06/09 07:27:31;;;;;;;;;;;;;;;;;;4956219;28;20428;-60
2022/06/09 07:29:56;;;;;;;;;;;;;;;;;;4954820;28;19958;-62
2022/06/09 07:32:22;;;;;;;;;;;;;;;;;;4954765;28;19929;-60
2022/06/09 07:34:49;;;;;;;;;;;;;;;;;;4953474;28;19926;-60
2022/06/09 07:37:14;;;;;;;;;;;;;;;;;;4938702;28;19960;-63
2022/06/09 07:39:42;;;;;;;;;;;;;;;;;;4955362;28;19948;-62
2022/06/09 07:42:07;;;;;;;;;;;;;;;;;;4955574;28;19930;-60
2022/06/09 07:44:35;;;;;;;;;;;;;;;;;;4939887;28;19924;-62
2022/06/09 07:47:01;;;;;;;;;;;;;;;;;;4954961;28;19922;-61
2022/06/09 07:49:28;;;;;;;;;;;;;;;;;;4920816;28;19922;-62
2022/06/09 07:51:56;;;;;;;;;;;;;;;;;;4937494;28;19922;-61
2022/06/09 07:54:24;;;;;;;;;;;;;;;;;;4935384;28;19926;-59
2022/06/09 07:56:52;;;;;;;;;;;;;;;;;;4937470;28;20008;-62
2022/06/09 07:59:19;;;;;;;;;;;;;;;;;;4954510;28;20961;-60
2022/06/09 08:01:46;;;;;;;;;;;;;;;;;;4916677;28;19996;-62
2022/06/09 08:04:11;;;;;;;;;;;;;;;;;;4953649;28;19933;-65
2022/06/09 08:06:42;;;;;;;;;;;;;;;;;;4916031;28;19977;-61
2022/06/09 08:09:08;;;;;;;;;;;;;;;;;;4921711;28;20045;-61
2022/06/09 08:11:36;;;;;;;;;;;;;;;;;;4954574;28;19922;-61
2022/06/09 08:14:02;;;;;;;;;;;;;;;;;;4922909;28;19933;-62
2022/06/09 08:16:28;;;;;;;;;;;;;;;;;;4928439;28;20017;-62
2022/06/09 08:21:28;;;;;;;;;;;;;;;;;;5077803;23;20064;-61
2022/06/09 08:23:53;;;;;;;;;;;;;;;;;;4990685;28;19921;-61
2022/06/09 08:26:18;;;;;;;;;;;;;;;;;;4990917;28;20633;-62
2022/06/09 08:28:46;;;;;;;;;;;;;;;;;;4991945;28;19960;-61
2022/06/09 08:31:12;;;;;;;;;;;;;;;;;;4991342;28;20032;-62
2022/06/09 08:33:38;;;;;;;;;;;;;;;;;;4961680;28;20008;-63
2022/06/09 08:36:05;;;;;;;;;;;;;;;;;;4973531;28;19928;-61
2022/06/09 08:38:30;;;;;;;;;;;;;;;;;;4974561;28;19921;-61
2022/06/09 08:40:56;;;;;;;;;;;;;;;;;;4990666;28;21216;-61
2022/06/09 08:43:21;;;;;;;;;;;;;;;;;;4990490;28;19922;-61
2022/06/09 08:45:47;;;;;;;;;;;;;;;;;;4990468;28;19925;-61
2022/06/09 08:48:15;;;;;;;;;;;;;;;;;;4975146;28;20492;-59
2022/06/09 08:50:40;;;;;;;;;;;;;;;;;;4975143;28;19976;-61
2022/06/09 08:53:08;;;;;;;;;;;;;;;;;;4981498;28;19967;-61
2022/06/09 08:55:34;;;;;;;;;;;;;;;;;;4976053;28;20041;-61
2022/06/09 08:58:01;;;;;;;;;;;;;;;;;;4959182;28;19921;-61
2022/06/09 09:00:27;;;;;;;;;;;;;;;;;;4990475;28;20571;-61
2022/06/09 09:02:59;;;;;;;;;;;;;;;;;;4990087;28;20434;-62
2022/06/09 09:05:25;;;;;;;;;;;;;;;;;;4989362;28;19925;-61
2022/06/09 09:07:55;;;;;;;;;;;;;;;;;;4989663;28;20020;-60
2022/06/09 09:10:21;;;;;;;;;;;;;;;;;;4989869;28;19925;-63
2022/06/09 09:12:46;;;;;;;;;;;;;;;;;;4990434;28;19971;-59
2022/06/09 09:15:12;;;;;;;;;;;;;;;;;;4974302;28;19922;-62
2022/06/09 09:17:42;;;;;;;;;;;;;;;;;;4989304;28;20024;-62
2022/06/09 09:20:08;;;;;;;;;;;;;;;;;;4987617;28;19968;-61
2022/06/09 09:22:33;;;;;;;;;;;;;;;;;;4975885;28;19921;-62
2022/06/09 09:24:59;;;;;;;;;;;;;;;;;;4989036;28;20380;-61
2022/06/09 09:27:27;;;;;;;;;;;;;;;;;;4989531;28;19921;-61
2022/06/09 09:29:54;;;;;;;;;;;;;;;;;;4989333;28;20954;-62
2022/06/09 09:32:22;;;;;;;;;;;;;;;;;;4988577;28;19921;-61
2022/06/09 09:34:48;;;;;;;;;;;;;;;;;;4972782;28;19933;-61
2022/06/09 09:37:13;;;;;;;;;;;;;;;;;;4976210;28;20015;-63
2022/06/09 09:39:38;;;;;;;;;;;;;;;;;;4974200;28;20363;-63
2022/06/09 09:42:04;;;;;;;;;;;;;;;;;;4974425;28;19973;-62
2022/06/09 09:44:32;;;;;;;;;;;;;;;;;;4990249;28;19921;-62
2022/06/09 09:46:57;;;;;;;;;;;;;;;;;;4988431;28;19927;-62
2022/06/09 09:49:25;;;;;;;;;;;;;;;;;;4990185;28;19941;-62
2022/06/09 09:51:51;;;;;;;;;;;;;;;;;;4989198;28;19969;-62
2022/06/09 09:54:19;;;;;;;;;;;;;;;;;;4972765;28;20004;-61
2022/06/09 09:56:44;;;;;;;;;;;;;;;;;;4974245;28;20467;-61
2022/06/09 09:59:12;;;;;;;;;;;;;;;;;;4988428;28;20468;-61
2022/06/09 10:09:54;;;;;;;;;;;;;;;;;;4989276;28;19947;-61
2022/06/09 10:12:21;;;;;;;;;;;;;;;;;;4990210;28;20028;-62
2022/06/09 10:14:49;;;;;;;;;;;;;;;;;;4974539;28;20556;-61
2022/06/09 10:17:17;;;;;;;;;;;;;;;;;;4955205;28;19940;-60
2022/06/09 10:19:43;;;;;;;;;;;;;;;;;;4989213;28;20300;-60
2022/06/09 10:22:11;;;;;;;;;;;;;;;;;;4987805;28;19922;-61
2022/06/09 10:24:39;;;;;;;;;;;;;;;;;;4974515;28;19931;-60
2022/06/09 10:27:04;;;;;;;;;;;;;;;;;;4989745;28;19918;-61
2022/06/09 10:29:33;;;;;;;;;;;;;;;;;;4972950;28;19944;-61
2022/06/09 10:31:58;;;;;;;;;;;;;;;;;;4975421;28;19921;-60
2022/06/09 10:34:23;;;;;;;;;;;;;;;;;;4987977;28;19921;-61
2022/06/09 10:36:49;;;;;;;;;;;;;;;;;;4971003;28;19925;-62
2022/06/09 10:39:14;;;;;;;;;;;;;;;;;;4987335;28;20000;-60
2022/06/09 10:41:43;;;;;;;;;;;;;;;;;;4973534;28;19953;-60
2022/06/09 10:44:08;;;;;;;;;;;;;;;;;;4989236;28;19983;-61
2022/06/09 10:46:34;;;;;;;;;;;;;;;;;;4972617;28;20000;-62
2022/06/09 10:57:11;;;;;;;;;;;;;;;;;;4986181;28;19925;-61
2022/06/09 10:59:39;;;;;;;;;;;;;;;;;;4971324;28;19997;-60
2022/06/09 11:02:07;;;;;;;;;;;;;;;;;;4972695;28;20210;-60
2022/06/09 11:04:34;;;;;;;;;;;;;;;;;;4985302;28;19960;-60
2022/06/09 11:07:08;;;;;;;;;;;;;;;;;;4969202;28;20638;-60
2022/06/09 11:09:33;;;;;;;;;;;;;;;;;;4987915;28;20024;-59
2022/06/09 11:11:59;;;;;;;;;;;;;;;;;;4985931;28;20407;-61
2022/06/09 11:14:26;;;;;;;;;;;;;;;;;;4985187;28;19928;-61
2022/06/09 11:16:52;;;;;;;;;;;;;;;;;;4989284;28;19928;-60
2022/06/09 11:19:17;;;;;;;;;;;;;;;;;;4986049;28;19921;-60
2022/06/09 11:21:44;;;;;;;;;;;;;;;;;;4981932;28;19960;-60
2022/06/09 11:24:12;;;;;;;;;;;;;;;;;;4986607;28;19928;-60
2022/06/09 11:26:38;;;;;;;;;;;;;;;;;;4987733;28;21887;-61
2022/06/09 11:29:03;;;;;;;;;;;;;;;;;;4970146;28;20012;-62
2022/06/09 11:31:30;;;;;;;;;;;;;;;;;;4983431;28;19922;-60
2022/06/09 11:33:55;;;;;;;;;;;;;;;;;;4964099;28;19921;-61
2022/06/09 11:36:26;;;;;;;;;;;;;;;;;;4963842;28;19953;-61
2022/06/09 11:38:51;;;;;;;;;;;;;;;;;;4960030;28;20300;-60
2022/06/09 11:41:17;;;;;;;;;;;;;;;;;;4968113;28;19922;-62
2022/06/09 11:43:44;;;;;;;;;;;;;;;;;;4963826;28;21690;-61
2022/06/09 11:46:13;;;;;;;;;;;;;;;;;;4984606;28;19939;-62
2022/06/09 11:48:40;;;;;;;;;;;;;;;;;;4989224;28;19932;-60
2022/06/09 11:51:06;;;;;;;;;;;;;;;;;;4989487;28;19933;-61
2022/06/09 11:53:31;;;;;;;;;;;;;;;;;;4988198;28;19921;-60
2022/06/09 11:56:02;;;;;;;;;;;;;;;;;;4985754;28;19921;-61
2022/06/09 11:58:28;;;;;;;;;;;;;;;;;;4979079;28;19963;-61
2022/06/09 12:00:53;;;;;;;;;;;;;;;;;;4970249;28;19925;-62
2022/06/09 12:03:18;;;;;;;;;;;;;;;;;;4984777;28;19928;-59
2022/06/09 12:05:43;;;;;;;;;;;;;;;;;;4982707;28;19936;-62
2022/06/09 12:08:09;;;;;;;;;;;;;;;;;;4972673;28;19968;-61
2022/06/09 12:10:35;;;;;;;;;;;;;;;;;;4954729;28;19921;-61
2022/06/09 12:13:02;;;;;;;;;;;;;;;;;;4953355;28;21586;-61
2022/06/09 12:15:31;;;;;;;;;;;;;;;;;;4990673;28;19971;-60
2022/06/09 12:18:01;;;;;;;;;;;;;;;;;;4991222;28;19972;-62
2022/06/09 12:20:29;;;;;;;;;;;;;;;;;;4990737;28;19940;-62
2022/06/09 12:22:54;;;;;;;;;;;;;;;;;;4975723;28;19925;-60
2022/06/09 12:25:23;;;;;;;;;;;;;;;;;;4964886;28;20032;-62
2022/06/09 12:27:48;;;;;;;;;;;;;;;;;;4970664;28;20335;-62
2022/06/09 12:30:15;;;;;;;;;;;;;;;;;;4987552;28;19922;-62
2022/06/09 12:32:40;;;;;;;;;;;;;;;;;;4971435;28;20514;-62
2022/06/09 12:35:07;;;;;;;;;;;;;;;;;;4984650;28;19921;-63
2022/06/09 12:37:33;;;;;;;;;;;;;;;;;;4969023;28;20003;-61
2022/06/09 12:39:58;;;;;;;;;;;;;;;;;;4970333;28;19917;-63
2022/06/09 12:42:27;;;;;;;;;;;;;;;;;;4983219;28;19921;-62
2022/06/09 12:44:55;;;;;;;;;;;;;;;;;;4959682;28;19929;-61
2022/06/09 12:47:21;;;;;;;;;;;;;;;;;;4981877;28;19929;-62
2022/06/09 12:49:47;;;;;;;;;;;;;;;;;;4949229;28;19925;-62
2022/06/09 12:55:06;;;;;;;;;;;;;;;;;;4983029;28;19929;-62
2022/06/09 12:57:31;;;;;;;;;;;;;;;;;;4983620;28;20380;-61
2022/06/09 12:59:56;;;;;;;;;;;;;;;;;;4984400;28;21852;-60
2022/06/09 13:02:26;;;;;;;;;;;;;;;;;;4983550;28;19929;-60
2022/06/09 13:04:51;;;;;;;;;;;;;;;;;;4965593;28;19931;-62
2022/06/09 13:07:16;;;;;;;;;;;;;;;;;;4966451;28;19925;-61
2022/06/09 13:09:44;;;;;;;;;;;;;;;;;;4966713;28;20045;-63
2022/06/09 13:14:59;;;;;;;;;;;;;;;;;;4982729;28;20036;-61
2022/06/09 13:17:24;;;;;;;;;;;;;;;;;;4970893;28;19925;-61
2022/06/09 13:19:50;;;;;;;;;;;;;;;;;;4982387;28;19926;-60
2022/06/09 13:22:19;;;;;;;;;;;;;;;;;;4970208;28;19925;-61
2022/06/09 13:24:47;;;;;;;;;;;;;;;;;;4967132;28;20012;-61
2022/06/09 13:27:20;;;;;;;;;;;;;;;;;;4964630;28;19924;-62
2022/06/09 13:29:45;;;;;;;;;;;;;;;;;;4969434;28;20368;-62
2022/06/09 13:32:13;;;;;;;;;;;;;;;;;;4981394;28;19929;-63
2022/06/09 13:34:38;;;;;;;;;;;;;;;;;;4984440;28;19922;-62
2022/06/09 13:37:06;;;;;;;;;;;;;;;;;;4984149;28;19921;-61
2022/06/09 13:39:31;;;;;;;;;;;;;;;;;;4984013;28;19917;-62
2022/06/09 13:41:56;;;;;;;;;;;;;;;;;;4969429;28;20982;-59
2022/06/09 13:44:25;;;;;;;;;;;;;;;;;;4982154;28;20563;-61
2022/06/09 13:46:51;;;;;;;;;;;;;;;;;;4969074;28;21914;-63
2022/06/09 13:49:17;;;;;;;;;;;;;;;;;;4956376;28;19922;-62
2022/06/09 13:51:42;;;;;;;;;;;;;;;;;;4960084;28;19924;-62
2022/06/09 13:54:08;;;;;;;;;;;;;;;;;;4973509;28;19925;-62
2022/06/09 13:56:34;;;;;;;;;;;;;;;;;;4949089;28;19925;-60
2022/06/09 13:59:01;;;;;;;;;;;;;;;;;;4981596;28;19983;-61
2022/06/09 14:01:27;;;;;;;;;;;;;;;;;;4982233;28;19921;-61
2022/06/09 14:03:53;;;;;;;;;;;;;;;;;;4962838;28;22211;-61
2022/06/09 14:06:21;;;;;;;;;;;;;;;;;;4977129;28;19925;-62
2022/06/09 14:08:49;;;;;;;;;;;;;;;;;;4966514;28;19936;-61
2022/06/09 14:11:14;;;;;;;;;;;;;;;;;;4978929;28;19926;-66
2022/06/09 14:13:41;;;;;;;;;;;;;;;;;;4982296;28;19921;-62
2022/06/09 14:16:07;;;;;;;;;;;;;;;;;;4966123;28;20349;-61
2022/06/09 14:18:33;;;;;;;;;;;;;;;;;;4964014;28;19921;-64
2022/06/09 14:21:01;;;;;;;;;;;;;;;;;;4982447;28;20380;-61
2022/06/09 14:23:29;;;;;;;;;;;;;;;;;;4983228;28;19917;-61
2022/06/09 14:26:02;;;;;;;;;;;;;;;;;;4983921;28;19972;-62
2022/06/09 14:28:27;;;;;;;;;;;;;;;;;;4967656;28;19918;-62
2022/06/09 14:30:55;;;;;;;;;;;;;;;;;;4964801;28;19992;-62
2022/06/09 14:33:24;;;;;;;;;;;;;;;;;;4984033;28;19921;-62
2022/06/09 14:35:50;;;;;;;;;;;;;;;;;;4969237;28;19925;-61
2022/06/09 14:38:15;;;;;;;;;;;;;;;;;;4962653;28;19925;-59
2022/06/09 14:40:43;;;;;;;;;;;;;;;;;;4951730;28;19922;-61
2022/06/09 14:43:09;;;;;;;;;;;;;;;;;;4971651;28;19926;-60
2022/06/09 14:45:34;;;;;;;;;;;;;;;;;;4969783;28;19957;-60
2022/06/09 14:48:00;;;;;;;;;;;;;;;;;;4984848;28;20013;-61
2022/06/09 14:50:26;;;;;;;;;;;;;;;;;;4971672;28;19928;-62
2022/06/09 14:52:51;;;;;;;;;;;;;;;;;;4969848;28;19979;-61
2022/06/09 14:55:16;;;;;;;;;;;;;;;;;;4985185;28;20435;-61
2022/06/09 14:57:42;;;;;;;;;;;;;;;;;;4974760;28;19956;-60
2022/06/09 15:00:10;;;;;;;;;;;;;;;;;;4969448;28;19981;-63
2022/06/09 15:02:38;;;;;;;;;;;;;;;;;;4988430;28;20068;-62
2022/06/09 15:05:06;;;;;;;;;;;;;;;;;;4985697;28;20851;-62
2022/06/09 15:07:34;;;;;;;;;;;;;;;;;;4983589;28;19926;-63
2022/06/09 15:10:01;;;;;;;;;;;;;;;;;;4963062;28;20059;-61
2022/06/09 15:12:27;;;;;;;;;;;;;;;;;;4966837;28;19924;-63
2022/06/09 15:14:53;;;;;;;;;;;;;;;;;;4956144;28;20932;-61
2022/06/09 15:17:19;;;;;;;;;;;;;;;;;;4964518;28;19928;-61
2022/06/09 15:19:44;;;;;;;;;;;;;;;;;;4949739;28;20408;-63
2022/06/09 15:22:10;;;;;;;;;;;;;;;;;;4967870;28;20045;-61
2022/06/09 15:24:35;;;;;;;;;;;;;;;;;;4986029;28;19932;-63
2022/06/09 15:27:04;;;;;;;;;;;;;;;;;;4985430;28;19964;-61
2022/06/09 15:29:33;;;;;;;;;;;;;;;;;;4984875;28;20008;-63
2022/06/09 15:32:03;;;;;;;;;;;;;;;;;;4982210;28;19917;-63
2022/06/09 15:34:29;;;;;;;;;;;;;;;;;;4985496;28;19929;-64
2022/06/09 15:36:54;;;;;;;;;;;;;;;;;;4974495;28;19921;-63
2022/06/09 15:39:20;;;;;;;;;;;;;;;;;;4988746;28;19925;-63
2022/06/09 15:41:48;;;;;;;;;;;;;;;;;;4985810;28;19922;-63
2022/06/09 15:44:13;;;;;;;;;;;;;;;;;;4982534;28;20060;-63
2022/06/09 15:46:39;;;;;;;;;;;;;;;;;;4967521;28;19929;-62
2022/06/09 15:49:07;;;;;;;;;;;;;;;;;;4982576;28;19952;-63
2022/06/09 15:51:34;;;;;;;;;;;;;;;;;;4961278;28;20387;-65
2022/06/09 15:54:01;;;;;;;;;;;;;;;;;;4984642;28;20000;-66
2022/06/09 15:56:26;;;;;;;;;;;;;;;;;;4981520;28;19921;-66
2022/06/09 15:58:52;;;;;;;;;;;;;;;;;;4986536;28;19921;-64
2022/06/09 16:01:19;;;;;;;;;;;;;;;;;;4964466;28;20004;-63
2022/06/09 16:03:47;;;;;;;;;;;;;;;;;;4982182;28;19921;-63
2022/06/09 16:06:15;;;;;;;;;;;;;;;;;;4958038;28;19925;-64
2022/06/09 16:08:40;;;;;;;;;;;;;;;;;;4986076;28;19921;-64
2022/06/09 16:11:08;;;;;;;;;;;;;;;;;;4979412;28;19979;-64
2022/06/09 16:13:33;;;;;;;;;;;;;;;;;;4967607;28;19925;-64
2022/06/09 16:16:20;;;;;;;;;;;;;;;;;;4966259;28;19922;-65
2022/06/09 16:18:48;;;;;;;;;;;;;;;;;;4970032;28;19921;-63
2022/06/09 16:21:16;;;;;;;;;;;;;;;;;;4965700;28;20008;-64
2022/06/09 16:23:42;;;;;;;;;;;;;;;;;;4970961;28;19925;-64
2022/06/09 16:26:13;;;;;;;;;;;;;;;;;;4983294;28;19940;-66
2022/06/09 16:28:38;;;;;;;;;;;;;;;;;;4960674;28;19921;-66
2022/06/09 16:31:04;;;;;;;;;;;;;;;;;;4969101;28;21025;-64
2022/06/09 16:33:29;;;;;;;;;;;;;;;;;;4965279;28;19917;-64
2022/06/09 16:35:55;;;;;;;;;;;;;;;;;;4971375;28;19928;-66
2022/06/09 16:39:11;;;;;;;;;;;;;;;;;;4958098;28;19928;-66
2022/06/09 16:41:37;;;;;;;;;;;;;;;;;;4952276;28;20019;-64
2022/06/09 16:44:02;;;;;;;;;;;;;;;;;;4936590;28;20449;-65
2022/06/09 16:46:30;;;;;;;;;;;;;;;;;;4952727;28;19937;-64
2022/06/09 16:48:56;;;;;;;;;;;;;;;;;;4956511;28;19921;-64
2022/06/09 16:51:22;;;;;;;;;;;;;;;;;;4953961;28;19933;-65
2022/06/09 16:53:47;;;;;;;;;;;;;;;;;;4950751;28;19997;-65
2022/06/09 16:56:13;;;;;;;;;;;;;;;;;;4950630;28;20294;-66
2022/06/09 16:58:39;;;;;;;;;;;;;;;;;;4953068;28;19922;-66
2022/06/09 17:01:04;;;;;;;;;;;;;;;;;;4948126;28;19993;-68
2022/06/09 17:03:30;;;;;;;;;;;;;;;;;;4946279;28;19918;-66
2022/06/09 17:05:57;;;;;;;;;;;;;;;;;;4931838;28;19921;-65
2022/06/09 17:08:23;;;;;;;;;;;;;;;;;;4973046;28;20389;-66
2022/06/09 17:10:48;;;;;;;;;;;;;;;;;;4953617;28;19953;-65
2022/06/09 17:13:13;;;;;;;;;;;;;;;;;;4949123;28;19965;-67